createdAt,value
2022-11-29T00:00:49.418Z,22.20
2022-11-29T00:03:16.376Z,15.85
2022-11-29T00:05:42.958Z,21.95
2022-11-29T00:08:09.760Z,21.65
2022-11-29T00:10:37.889Z,20.73
2022-11-29T00:13:05.076Z,20.98
2022-11-29T00:15:36.824Z,24.15
2022-11-29T00:18:03.953Z,24.13
2022-11-29T00:20:31.186Z,22.20
2022-11-29T00:22:57.707Z,21.40
2022-11-29T00:25:24.246Z,25.92
2022-11-29T00:27:51.493Z,22.52
2022-11-29T00:30:19.297Z,24.58
2022-11-29T00:32:46.070Z,24.48
2022-11-29T00:35:12.763Z,22.35
2022-11-29T00:37:39.159Z,21.88
2022-11-29T00:40:06.359Z,21.70
2022-11-29T00:42:32.795Z,20.45
2022-11-29T00:44:59.227Z,23.95
2022-11-29T00:47:25.634Z,24.45
2022-11-29T00:49:52.107Z,23.65
2022-11-29T00:52:18.610Z,22.67
2022-11-29T00:54:45.450Z,24.95
2022-11-29T00:57:12.150Z,28.70
2022-11-29T00:59:38.561Z,28.60
2022-11-29T01:02:05.090Z,26.95
2022-11-29T01:04:31.538Z,32.05
2022-11-29T01:06:57.972Z,25.90
2022-11-29T01:09:24.399Z,32.30
2022-11-29T01:11:50.929Z,31.70
2022-11-29T01:14:17.414Z,27.45
2022-11-29T01:16:43.855Z,27.75
2022-11-29T01:19:10.746Z,30.17
2022-11-29T01:21:37.628Z,23.23
2022-11-29T01:24:04.333Z,25.95
2022-11-29T01:26:31.962Z,28.33
2022-11-29T01:28:59.219Z,23.25
2022-11-29T01:31:31.563Z,23.95
2022-11-29T01:34:01.090Z,23.42
2022-11-29T01:36:28.611Z,23.98
2022-11-29T01:38:55.113Z,23.65
2022-11-29T01:41:27.330Z,23.15
2022-11-29T01:44:11.903Z,24.40
2022-11-29T01:46:48.573Z,26.90
2022-11-29T01:49:25.174Z,25.00
2022-11-29T01:51:54.183Z,27.60
2022-11-29T01:54:21.712Z,26.20
2022-11-29T01:56:50.359Z,30.95
2022-11-29T01:59:20.405Z,27.40
2022-11-29T02:01:46.898Z,25.83
2022-11-29T02:04:13.927Z,28.77
2022-11-29T02:06:41.326Z,26.95
2022-11-29T02:09:22.153Z,32.00
2022-11-29T02:12:45.998Z,30.15
2022-11-29T02:15:25.271Z,33.22
2022-11-29T02:18:06.405Z,29.23
2022-11-29T02:21:15.624Z,36.10
2022-11-29T02:24:01.919Z,28.88
2022-11-29T02:26:59.433Z,36.30
2022-11-29T02:29:54.980Z,32.70
2022-11-29T02:32:51.746Z,36.80
2022-11-29T02:35:26.915Z,27.75
2022-11-29T02:38:24.091Z,34.85
2022-11-29T02:41:00.439Z,40.78
2022-11-29T02:43:32.766Z,34.08
2022-11-29T02:46:42.109Z,34.20
2022-11-29T02:49:45.899Z,38.08
2022-11-29T02:52:30.511Z,43.47
2022-11-29T02:55:27.450Z,33.13
2022-11-29T02:58:18.784Z,41.58
2022-11-29T03:01:00.995Z,42.78
2022-11-29T03:03:49.828Z,40.08
2022-11-29T03:06:34.453Z,39.35
2022-11-29T03:09:10.583Z,42.60
2022-11-29T03:12:09.263Z,45.03
2022-11-29T03:14:57.586Z,48.38
2022-11-29T03:17:57.364Z,50.30
2022-11-29T03:20:54.159Z,48.55
2022-11-29T03:23:43.776Z,46.78
2022-11-29T03:26:23.257Z,48.58
2022-11-29T03:29:27.479Z,44.08
2022-11-29T03:31:56.705Z,42.53
2022-11-29T03:37:05.484Z,44.80
2022-11-29T03:40:08.732Z,52.20
2022-11-29T03:42:53.189Z,51.55
2022-11-29T03:45:29.824Z,52.83
2022-11-29T03:48:03.800Z,54.13
2022-11-29T03:50:38.792Z,55.65
2022-11-29T03:53:28.906Z,53.30
2022-11-29T03:56:04.459Z,62.58
2022-11-29T03:58:54.828Z,51.40
2022-11-29T04:01:21.318Z,56.10
2022-11-29T04:04:29.506Z,64.47
2022-11-29T04:07:34.547Z,54.80
2022-11-29T04:10:20.039Z,52.72
2022-11-29T04:13:08.063Z,61.47
2022-11-29T04:15:53.292Z,64.07
2022-11-29T04:18:38.503Z,50.60
2022-11-29T04:21:14.046Z,49.55
2022-11-29T04:24:22.024Z,58.75
2022-11-29T04:27:12.586Z,60.35
2022-11-29T04:29:51.113Z,59.13
2022-11-29T04:32:44.950Z,56.22
2022-11-29T04:38:24.134Z,56.10
2022-11-29T04:40:50.532Z,48.97
2022-11-29T04:43:50.425Z,49.17
2022-11-29T04:46:17.021Z,45.63
2022-11-29T04:49:00.946Z,50.88
2022-11-29T04:51:57.453Z,60.65
2022-11-29T04:54:26.876Z,53.38
2022-11-29T04:57:29.297Z,52.08
2022-11-29T05:00:18.615Z,54.83
2022-11-29T05:02:59.981Z,54.53
2022-11-29T05:05:32.449Z,34.00
2022-11-29T05:08:20.855Z,48.83
2022-11-29T05:11:14.563Z,44.15
2022-11-29T05:13:59.117Z,39.28
2022-11-29T05:16:38.366Z,49.78
2022-11-29T05:19:19.410Z,46.13
2022-11-29T05:22:04.540Z,41.47
2022-11-29T05:24:53.723Z,55.10
2022-11-29T05:27:45.673Z,41.42
2022-11-29T05:30:16.321Z,46.65
2022-11-29T05:32:54.318Z,54.95
2022-11-29T05:35:35.876Z,55.80
2022-11-29T05:40:50.814Z,50.78
2022-11-29T05:43:43.381Z,44.17
2022-11-29T05:46:29.851Z,65.90
2022-11-29T05:49:24.423Z,58.55
2022-11-29T05:52:12.595Z,56.88
2022-11-29T05:54:53.516Z,49.85
2022-11-29T05:57:28.913Z,54.47
2022-11-29T06:02:26.660Z,49.72
2022-11-29T06:08:29.374Z,55.58
2022-11-29T06:11:15.854Z,55.90
2022-11-29T06:13:54.921Z,60.47
2022-11-29T06:17:01.789Z,64.05
2022-11-29T06:20:04.263Z,51.35
2022-11-29T06:22:42.500Z,56.28
2022-11-29T06:25:34.065Z,47.33
2022-11-29T06:28:36.505Z,54.67
2022-11-29T06:31:15.388Z,58.08
2022-11-29T06:33:56.630Z,51.45
2022-11-29T06:36:25.584Z,58.28
2022-11-29T06:38:52.163Z,44.38
2022-11-29T06:41:23.747Z,50.45
2022-11-29T06:43:50.588Z,57.97
2022-11-29T06:46:42.223Z,57.47
2022-11-29T06:49:23.977Z,52.13
2022-11-29T06:52:03.109Z,52.70
2022-11-29T06:54:49.062Z,60.78
2022-11-29T06:57:33.621Z,52.95
2022-11-29T07:00:06.703Z,58.08
2022-11-29T07:02:57.455Z,43.30
2022-11-29T07:05:28.887Z,52.92
2022-11-29T07:07:58.807Z,47.08
2022-11-29T07:10:26.699Z,47.70
2022-11-29T07:12:53.418Z,50.45
2022-11-29T07:15:22.377Z,56.58
2022-11-29T07:18:22.241Z,43.10
2022-11-29T07:20:54.345Z,43.50
2022-11-29T07:23:38.550Z,51.08
2022-11-29T07:26:12.359Z,50.78
2022-11-29T07:29:00.746Z,40.92
2022-11-29T07:31:56.175Z,49.58
2022-11-29T07:34:50.253Z,49.65
2022-11-29T07:37:22.747Z,47.53
2022-11-29T07:40:12.208Z,57.60
2022-11-29T07:42:38.610Z,60.92
2022-11-29T07:45:28.965Z,55.30
2022-11-29T07:47:55.829Z,57.72
2022-11-29T07:50:22.340Z,49.00
2022-11-29T07:52:49.175Z,51.15
2022-11-29T07:55:19.117Z,56.92
2022-11-29T07:57:46.615Z,46.80
2022-11-29T08:00:14.304Z,53.47
2022-11-29T08:02:41.645Z,54.40
2022-11-29T08:05:09.071Z,51.25
2022-11-29T08:07:40.654Z,53.80
2022-11-29T08:10:10.432Z,55.45
2022-11-29T08:12:41.524Z,52.85
2022-11-29T08:15:08.914Z,57.55
2022-11-29T08:17:38.130Z,51.72
2022-11-29T08:22:32.042Z,45.08
2022-11-29T08:24:59.849Z,49.60
2022-11-29T08:27:26.357Z,44.80
2022-11-29T08:29:52.824Z,56.08
2022-11-29T08:32:19.365Z,43.45
2022-11-29T08:34:46.093Z,52.78
2022-11-29T08:37:12.988Z,50.65
2022-11-29T08:39:39.556Z,42.35
2022-11-29T08:42:06.036Z,49.97
2022-11-29T08:44:32.498Z,53.83
2022-11-29T08:47:17.737Z,54.05
2022-11-29T08:50:02.403Z,57.25
2022-11-29T08:52:49.016Z,52.13
2022-11-29T08:55:16.574Z,62.67
2022-11-29T08:57:43.445Z,70.80
2022-11-29T09:00:10.814Z,62.58
2022-11-29T09:02:37.679Z,55.45
2022-11-29T09:05:05.347Z,49.28
2022-11-29T09:07:32.107Z,44.13
2022-11-29T09:09:58.901Z,47.50
2022-11-29T09:12:25.475Z,49.60
2022-11-29T09:14:51.944Z,42.70
2022-11-29T09:17:18.548Z,41.42
2022-11-29T09:19:45.027Z,47.30
2022-11-29T09:22:11.619Z,38.45
2022-11-29T09:24:38.061Z,38.45
2022-11-29T09:27:04.587Z,34.65
2022-11-29T09:29:31.057Z,44.00
2022-11-29T09:31:57.718Z,35.13
2022-11-29T09:34:24.569Z,36.88
2022-11-29T09:36:51.162Z,34.53
2022-11-29T09:39:17.890Z,45.95
2022-11-29T09:42:06.975Z,37.33
2022-11-29T09:45:01.303Z,37.70
2022-11-29T09:47:52.632Z,40.20
2022-11-29T09:50:32.195Z,43.95
2022-11-29T09:52:58.580Z,40.40
2022-11-29T09:56:02.729Z,43.88
2022-11-29T09:58:40.549Z,40.50
2022-11-29T10:01:12.773Z,39.53
2022-11-29T10:03:47.919Z,41.28
2022-11-29T10:06:28.155Z,42.05
2022-11-29T10:09:04.487Z,36.78
2022-11-29T10:11:47.836Z,38.83
2022-11-29T10:14:22.308Z,35.25
2022-11-29T10:17:09.990Z,37.45
2022-11-29T10:22:23.327Z,37.03
2022-11-29T10:24:54.746Z,36.70
2022-11-29T10:27:23.910Z,34.47
2022-11-29T10:32:21.335Z,38.42
2022-11-29T10:34:49.583Z,36.65
2022-11-29T10:37:19.125Z,43.53
2022-11-29T10:39:53.057Z,41.40
2022-11-29T10:42:40.844Z,46.00
2022-11-29T10:45:21.634Z,53.20
2022-11-29T10:47:49.776Z,46.03
2022-11-29T10:50:28.491Z,43.75
2022-11-29T10:53:19.979Z,48.88
2022-11-29T10:56:00.635Z,45.20
2022-11-29T10:58:29.185Z,35.75
2022-11-29T11:01:00.378Z,45.15
2022-11-29T11:03:32.914Z,38.53
2022-11-29T11:06:03.590Z,46.10
2022-11-29T11:08:32.741Z,45.33
2022-11-29T11:11:02.141Z,46.72
2022-11-29T11:13:31.232Z,48.30
2022-11-29T11:16:15.977Z,45.65
2022-11-29T11:18:43.083Z,42.65
2022-11-29T11:21:12.165Z,46.95
2022-11-29T11:23:55.989Z,52.17
2022-11-29T11:26:24.101Z,44.10
2022-11-29T11:29:00.273Z,44.15
2022-11-29T11:31:34.442Z,43.53
2022-11-29T11:34:37.859Z,41.75
2022-11-29T11:37:19.726Z,44.22
2022-11-29T11:39:48.557Z,44.95
2022-11-29T11:42:39.086Z,41.58
2022-11-29T11:45:11.593Z,39.35
2022-11-29T11:47:51.255Z,37.22
2022-11-29T11:50:25.339Z,40.60
2022-11-29T11:52:56.239Z,37.75
2022-11-29T11:55:23.212Z,37.28
2022-11-29T11:58:09.857Z,38.83
2022-11-29T12:03:28.528Z,37.33
2022-11-29T12:06:03.145Z,35.08
2022-11-29T12:08:30.768Z,39.78
2022-11-29T12:11:07.284Z,45.88
2022-11-29T12:13:38.824Z,35.00
2022-11-29T12:16:14.497Z,35.38
2022-11-29T12:18:47.159Z,41.42
2022-11-29T12:21:16.369Z,47.08
2022-11-29T12:26:48.890Z,43.70
2022-11-29T12:29:18.315Z,38.67
2022-11-29T12:31:50.682Z,36.47
2022-11-29T12:34:26.183Z,30.20
2022-11-29T12:37:20.837Z,38.25
2022-11-29T12:39:59.341Z,36.60
2022-11-29T12:42:47.650Z,36.25
2022-11-29T12:45:32.356Z,35.70
2022-11-29T12:48:17.714Z,35.33
2022-11-29T12:51:07.707Z,34.67
2022-11-29T12:53:52.462Z,39.28
2022-11-29T12:56:36.790Z,33.58
2022-11-29T12:59:27.691Z,38.28
2022-11-29T13:02:32.278Z,30.70
2022-11-29T13:05:29.784Z,36.00
2022-11-29T13:08:08.461Z,35.95
2022-11-29T13:10:56.115Z,33.38
2022-11-29T13:16:04.640Z,36.22
2022-11-29T13:18:58.941Z,38.63
2022-11-29T13:21:35.853Z,41.38
2022-11-29T13:24:11.747Z,38.47
2022-11-29T13:26:41.223Z,40.22
2022-11-29T13:29:15.276Z,40.15
2022-11-29T13:31:42.603Z,35.40
2022-11-29T13:34:41.058Z,39.22
2022-11-29T13:37:26.651Z,33.92
2022-11-29T13:40:17.639Z,34.92
2022-11-29T13:42:58.784Z,33.72
2022-11-29T13:45:35.130Z,35.85
2022-11-29T13:48:24.935Z,36.25
2022-11-29T13:50:56.518Z,39.95
2022-11-29T13:53:48.163Z,27.83
2022-11-29T13:56:47.405Z,36.42
2022-11-29T13:59:22.508Z,39.45
2022-11-29T14:01:54.111Z,36.03
2022-11-29T14:04:25.647Z,27.70
2022-11-29T14:07:01.942Z,33.80
2022-11-29T14:09:43.731Z,30.58
2022-11-29T14:12:48.846Z,30.98
2022-11-29T14:15:21.496Z,31.73
2022-11-29T14:17:54.685Z,29.27
2022-11-29T14:20:24.975Z,31.00
2022-11-29T14:23:07.481Z,30.20
2022-11-29T14:25:53.440Z,30.80
2022-11-29T14:28:22.740Z,32.10
2022-11-29T14:33:21.401Z,32.58
2022-11-29T14:36:04.685Z,29.95
2022-11-29T14:39:09.663Z,27.77
2022-11-29T14:41:50.990Z,33.88
2022-11-29T14:44:17.541Z,30.95
2022-11-29T14:46:45.096Z,29.67
2022-11-29T14:49:24.564Z,32.30
2022-11-29T14:52:15.301Z,33.13
2022-11-29T14:54:56.397Z,29.05
2022-11-29T14:57:48.296Z,28.15
2022-11-29T15:00:35.255Z,24.35
2022-11-29T15:03:18.435Z,24.80
2022-11-29T15:05:50.838Z,24.88
2022-11-29T15:08:26.065Z,24.08
2022-11-29T15:11:06.198Z,24.73
2022-11-29T15:13:35.878Z,22.48
2022-11-29T15:19:20.181Z,27.92
2022-11-29T15:21:46.596Z,23.63
2022-11-29T15:24:15.734Z,23.20
2022-11-29T15:26:57.327Z,24.83
2022-11-29T15:29:24.737Z,27.75
2022-11-29T15:31:57.509Z,25.75
2022-11-29T15:34:30.318Z,25.17
2022-11-29T15:36:57.545Z,25.27
2022-11-29T15:39:26.818Z,25.15
2022-11-29T15:41:53.722Z,24.60
2022-11-29T15:44:23.297Z,21.92
2022-11-29T15:46:49.761Z,23.00
2022-11-29T15:49:27.093Z,22.17
2022-11-29T15:51:59.961Z,24.25
2022-11-29T15:54:49.988Z,21.98
2022-11-29T15:57:26.312Z,23.27
2022-11-29T15:59:57.013Z,30.02
2022-11-29T16:02:27.971Z,23.10
2022-11-29T16:05:08.544Z,26.80
2022-11-29T16:07:37.275Z,21.85
2022-11-29T16:10:12.768Z,25.20
2022-11-29T16:12:59.314Z,29.48
2022-11-29T16:15:35.688Z,27.67
2022-11-29T16:18:14.229Z,27.60
2022-11-29T16:20:41.040Z,26.77
2022-11-29T16:23:13.198Z,30.98
2022-11-29T16:26:11.713Z,25.23
2022-11-29T16:28:43.253Z,34.65
2022-11-29T16:31:18.002Z,29.67
2022-11-29T16:33:47.521Z,31.08
2022-11-29T16:38:49.085Z,25.50
2022-11-29T16:41:29.378Z,28.77
2022-11-29T16:43:57.430Z,25.95
2022-11-29T16:46:26.489Z,29.15
2022-11-29T16:48:54.937Z,28.88
2022-11-29T16:51:48.083Z,26.20
2022-11-29T16:54:21.086Z,21.98
2022-11-29T16:56:47.806Z,27.83
2022-11-29T16:59:27.246Z,28.40
2022-11-29T17:01:55.705Z,26.77
2022-11-29T17:04:23.971Z,24.00
2022-11-29T17:06:52.004Z,31.13
2022-11-29T17:09:25.237Z,27.27
2022-11-29T17:11:52.263Z,26.38
2022-11-29T17:14:18.848Z,19.15
2022-11-29T17:16:49.107Z,32.97
2022-11-29T17:19:16.370Z,21.50
2022-11-29T17:21:43.102Z,22.25
2022-11-29T17:24:13.426Z,19.90
2022-11-29T17:26:41.282Z,27.23
2022-11-29T17:29:10.366Z,26.27
2022-11-29T17:31:37.419Z,22.77
2022-11-29T17:34:04.577Z,25.70
2022-11-29T17:36:31.643Z,19.05
2022-11-29T17:39:02.652Z,27.73
2022-11-29T17:41:30.397Z,24.85
2022-11-29T17:43:57.874Z,26.85
2022-11-29T17:46:26.184Z,24.83
2022-11-29T17:48:53.511Z,23.63
2022-11-29T17:51:50.656Z,23.77
2022-11-29T17:54:09.356Z,26.52
2022-11-29T17:56:35.869Z,23.50
2022-11-29T17:59:04.032Z,26.98
2022-11-29T18:01:35.844Z,34.15
2022-11-29T18:04:04.596Z,27.55
2022-11-29T18:06:37.088Z,22.83
2022-11-29T18:09:05.398Z,29.52
2022-11-29T18:11:46.358Z,36.83
2022-11-29T18:14:18.882Z,24.95
2022-11-29T18:16:45.651Z,17.27
2022-11-29T18:19:15.213Z,16.45
2022-11-29T18:24:08.664Z,17.80
2022-11-29T18:26:36.403Z,15.90
2022-11-29T18:29:03.458Z,36.10
2022-11-29T18:31:32.802Z,24.58
2022-11-29T18:36:33.351Z,20.85
2022-11-29T18:39:05.465Z,17.95
2022-11-29T18:41:32.441Z,20.15
2022-11-29T18:43:59.905Z,19.85
2022-11-29T18:46:32.032Z,16.90
2022-11-29T18:49:00.991Z,16.98
2022-11-29T18:51:29.363Z,23.80
2022-11-29T18:53:57.137Z,24.52
2022-11-29T18:56:26.792Z,22.00
2022-11-29T18:58:59.230Z,20.80
2022-11-29T19:01:28.548Z,20.50
2022-11-29T19:06:28.903Z,15.23
2022-11-29T19:08:58.445Z,26.35
2022-11-29T19:11:27.469Z,18.70
2022-11-29T19:13:56.753Z,21.85
2022-11-29T19:16:24.767Z,23.23
2022-11-29T19:18:53.516Z,25.17
2022-11-29T19:21:22.415Z,30.33
2022-11-29T19:23:57.257Z,31.30
2022-11-29T19:26:27.620Z,27.60
2022-11-29T19:28:55.104Z,33.03
2022-11-29T19:31:27.020Z,31.90
2022-11-29T19:33:55.113Z,46.60
2022-11-29T19:36:29.667Z,38.90
2022-11-29T19:38:57.246Z,37.92
2022-11-29T19:41:27.263Z,40.03
2022-11-29T19:43:56.133Z,39.28
2022-11-29T19:46:25.601Z,41.58
2022-11-29T19:51:20.845Z,29.85
2022-11-29T19:53:47.975Z,33.78
2022-11-29T19:56:16.611Z,29.02
2022-11-29T19:58:44.042Z,27.80
2022-11-29T20:01:16.295Z,28.52
2022-11-29T20:03:44.340Z,25.38
2022-11-29T20:06:11.148Z,30.13
2022-11-29T20:08:38.258Z,38.63
2022-11-29T20:11:10.422Z,41.88
2022-11-29T20:13:41.148Z,28.38
2022-11-29T20:16:10.609Z,36.42
2022-11-29T20:18:39.419Z,31.08
2022-11-29T20:21:12.375Z,28.92
2022-11-29T20:23:40.369Z,25.63
2022-11-29T20:26:12.228Z,31.08
2022-11-29T20:28:38.705Z,31.50
2022-11-29T20:31:11.924Z,31.70
2022-11-29T20:33:40.608Z,31.98
2022-11-29T20:36:32.607Z,27.05
2022-11-29T20:39:20.138Z,24.75
2022-11-29T20:42:28.374Z,27.92
2022-11-29T20:45:00.313Z,25.73
2022-11-29T20:47:32.880Z,32.42
2022-11-29T20:49:59.642Z,31.77
2022-11-29T20:52:40.447Z,29.98
2022-11-29T20:55:07.182Z,24.25
2022-11-29T20:57:33.950Z,28.67
2022-11-29T21:00:00.565Z,30.02
2022-11-29T21:02:27.015Z,30.80
2022-11-29T21:04:53.832Z,34.85
2022-11-29T21:07:20.913Z,29.00
2022-11-29T21:09:47.767Z,36.78
2022-11-29T21:12:14.834Z,34.40
2022-11-29T21:14:42.002Z,40.08
2022-11-29T21:17:09.559Z,33.35
2022-11-29T21:19:36.881Z,32.33
2022-11-29T21:22:17.245Z,29.27
2022-11-29T21:25:05.417Z,32.90
2022-11-29T21:27:34.620Z,31.63
2022-11-29T21:30:05.816Z,38.58
2022-11-29T21:32:33.700Z,34.47
2022-11-29T21:35:00.334Z,33.78
2022-11-29T21:37:30.211Z,30.42
2022-11-29T21:39:57.604Z,37.53
2022-11-29T21:42:24.351Z,39.38
2022-11-29T21:44:50.969Z,37.25
2022-11-29T21:47:17.617Z,36.40
2022-11-29T21:49:44.387Z,33.78
2022-11-29T21:52:11.065Z,39.83
2022-11-29T21:54:37.624Z,34.75
2022-11-29T21:57:04.324Z,40.85
2022-11-29T21:59:31.010Z,41.80
2022-11-29T22:01:57.693Z,40.45
2022-11-29T22:04:25.249Z,35.97
2022-11-29T22:06:51.909Z,30.30
2022-11-29T22:09:18.413Z,36.67
2022-11-29T22:12:25.936Z,44.72
2022-11-29T22:14:52.047Z,39.72
2022-11-29T22:17:18.598Z,43.33
2022-11-29T22:19:45.205Z,36.83
2022-11-29T22:22:12.100Z,37.80
2022-11-29T22:24:38.747Z,32.38
2022-11-29T22:27:05.495Z,39.15
2022-11-29T22:29:32.257Z,35.70
2022-11-29T22:31:59.651Z,37.22
2022-11-29T22:34:27.180Z,36.70
2022-11-29T22:36:54.064Z,45.92
2022-11-29T22:39:20.718Z,44.88
2022-11-29T22:41:53.537Z,38.53
2022-11-29T22:44:21.008Z,40.95
2022-11-29T22:46:47.577Z,40.28
2022-11-29T22:49:14.311Z,44.22
2022-11-29T22:51:40.853Z,29.20
2022-11-29T22:54:08.990Z,43.17
2022-11-29T22:56:38.721Z,37.50
2022-11-29T22:59:05.452Z,43.55
2022-11-29T23:01:34.822Z,45.45
2022-11-29T23:06:33.290Z,36.28
2022-11-29T23:11:30.558Z,43.60
2022-11-29T23:13:57.480Z,38.90
2022-11-29T23:16:26.594Z,44.08
2022-11-29T23:18:55.042Z,38.10
2022-11-29T23:21:24.133Z,37.40
2022-11-29T23:23:55.993Z,37.75
2022-11-29T23:26:29.073Z,38.08
2022-11-29T23:28:56.276Z,33.72
2022-11-29T23:31:23.797Z,36.20
2022-11-29T23:33:50.687Z,37.03
2022-11-29T23:36:17.458Z,36.03
2022-11-29T23:38:43.956Z,43.00
2022-11-29T23:41:11.636Z,40.65
2022-11-29T23:43:40.440Z,36.88
2022-11-29T23:46:14.438Z,36.70
2022-11-29T23:48:41.513Z,44.03
2022-11-29T23:51:08.272Z,35.25
2022-11-29T23:53:34.737Z,39.95
2022-11-29T23:56:14.298Z,34.38
2022-11-29T23:58:41.650Z,39.85
